Time;durP1;ratioP1;P1;durP2;ratioP2;P2;SDS_P1;SDS_P2;PMS_P1;PMS_P2;Temp;Humidity;BMP_temperature;BMP_pressure;BME280_temperature;BME280_humidity;BME280_pressure;Samples;Min_cycle;Max_cycle;Signal;HPM_P1;HPM_P2
2023/07/29 00:01:26;;;;;;;;;;;19.20;99.90;;;;;;8402782;28;20265;-71
2023/07/29 00:05:28;;;;;;;;;;;19.20;99.90;;;;;;8404918;28;19927;-71
2023/07/29 00:09:30;;;;;;;;;;;19.20;99.90;;;;;;8425359;28;19977;-71
2023/07/29 00:13:33;;;;;;;;;;;19.10;99.90;;;;;;8423715;28;19924;-71
2023/07/29 00:17:34;;;;;;;;;;;19.00;99.90;;;;;;8404037;28;19924;-71
2023/07/29 00:21:37;;;;;;;;;;;19.00;99.90;;;;;;8422272;28;19924;-71
2023/07/29 00:25:38;;;;;;;;;;;18.90;99.90;;;;;;8416154;28;19928;-71
2023/07/29 00:29:40;;;;;;;;;;;18.90;99.90;;;;;;8427323;28;19932;-71
2023/07/29 00:33:42;;;;;;;;;;;18.80;99.90;;;;;;8418587;28;19924;-71
2023/07/29 00:37:43;;;;;;;;;;;18.80;99.90;;;;;;8397840;28;20272;-70
2023/07/29 00:41:45;;;;;;;;;;;18.70;99.90;;;;;;8419112;28;19993;-70
2023/07/29 00:45:47;;;;;;;;;;;18.60;99.90;;;;;;8416194;28;20402;-70
2023/07/29 00:49:49;;;;;;;;;;;18.60;99.90;;;;;;8423548;28;19924;-70
2023/07/29 00:53:51;;;;;;;;;;;18.60;99.90;;;;;;8423301;28;19924;-70
2023/07/29 00:57:54;;;;;;;;;;;18.60;99.90;;;;;;8428211;28;19931;-70
2023/07/29 01:01:56;;;;;;;;;;;18.60;99.90;;;;;;8427444;28;19932;-70
2023/07/29 01:06:16;;;;;;;;;;;18.60;99.90;;;;;;8416687;28;19924;-70
2023/07/29 01:10:27;;;;;;;;;;;18.60;99.90;;;;;;8412446;28;19931;-71
2023/07/29 01:14:34;;;;;;;;;;;18.50;99.90;;;;;;8420729;28;19928;-70
2023/07/29 01:18:37;;;;;;;;;;;18.50;99.90;;;;;;8416960;28;19924;-70
2023/07/29 01:22:39;;;;;;;;;;;18.50;99.90;;;;;;8406296;28;20287;-71
2023/07/29 01:26:41;;;;;;;;;;;18.60;99.90;;;;;;8415387;28;19927;-71
2023/07/29 01:30:44;;;;;;;;;;;18.60;99.90;;;;;;8419103;28;19924;-71
2023/07/29 01:34:48;;;;;;;;;;;18.60;99.90;;;;;;8403937;28;19928;-71
2023/07/29 01:44:09;;;;;;;;;;;18.60;99.90;;;;;;8424020;28;20012;-70
2023/07/29 01:58:17;;;;;;;;;;;18.50;99.90;;;;;;8412789;28;19919;-70
2023/07/29 02:02:19;;;;;;;;;;;18.60;99.90;;;;;;8421206;28;20379;-71
2023/07/29 02:06:21;;;;;;;;;;;18.60;99.90;;;;;;8421303;28;20395;-71
2023/07/29 02:10:22;;;;;;;;;;;18.60;99.90;;;;;;8425251;28;19924;-71
2023/07/29 02:14:24;;;;;;;;;;;18.60;99.90;;;;;;8418086;28;19993;-71
2023/07/29 02:18:26;;;;;;;;;;;18.60;99.90;;;;;;8420296;28;19974;-71
2023/07/29 02:22:27;;;;;;;;;;;18.50;99.90;;;;;;8404449;28;20295;-70
2023/07/29 02:26:29;;;;;;;;;;;18.50;99.90;;;;;;8413919;28;19971;-70
2023/07/29 02:30:30;;;;;;;;;;;18.50;99.90;;;;;;8406164;28;19953;-71
2023/07/29 02:34:32;;;;;;;;;;;18.40;99.90;;;;;;8398180;28;19924;-71
2023/07/29 02:38:34;;;;;;;;;;;18.30;99.90;;;;;;8408397;28;19925;-71
2023/07/29 02:42:36;;;;;;;;;;;18.30;99.90;;;;;;8411753;28;20281;-71
2023/07/29 02:46:37;;;;;;;;;;;18.30;99.90;;;;;;8411843;28;20303;-71
2023/07/29 02:50:40;;;;;;;;;;;18.30;99.90;;;;;;8425027;28;19924;-71
2023/07/29 02:54:41;;;;;;;;;;;18.30;99.90;;;;;;8429325;28;19928;-71
2023/07/29 02:58:44;;;;;;;;;;;18.20;99.90;;;;;;8407770;28;19924;-70
2023/07/29 03:02:46;;;;;;;;;;;18.20;99.90;;;;;;8430705;28;19924;-70
2023/07/29 03:06:48;;;;;;;;;;;18.20;99.90;;;;;;8413834;28;19975;-71
2023/07/29 03:10:49;;;;;;;;;;;18.20;99.90;;;;;;8418414;28;19932;-70
2023/07/29 03:24:57;;;;;;;;;;;18.20;99.90;;;;;;8409317;28;19969;-70
2023/07/29 03:28:59;;;;;;;;;;;18.10;99.90;;;;;;8409967;28;20342;-70
2023/07/29 03:33:00;;;;;;;;;;;18.10;99.90;;;;;;8410683;28;20379;-70
2023/07/29 03:37:02;;;;;;;;;;;18.10;99.90;;;;;;8405594;28;20272;-70
2023/07/29 03:41:04;;;;;;;;;;;18.10;99.90;;;;;;8401620;28;19935;-71
2023/07/29 03:45:06;;;;;;;;;;;18.00;99.90;;;;;;8401478;28;19936;-71
2023/07/29 03:49:07;;;;;;;;;;;18.00;99.90;;;;;;8426595;28;19924;-70
2023/07/29 03:53:09;;;;;;;;;;;18.00;99.90;;;;;;8424257;28;20049;-70
2023/07/29 03:57:11;;;;;;;;;;;17.90;99.90;;;;;;8428610;28;19928;-70
2023/07/29 04:01:13;;;;;;;;;;;17.80;99.90;;;;;;8411449;28;19973;-70
2023/07/29 04:05:15;;;;;;;;;;;17.80;99.90;;;;;;8411335;28;20386;-71
2023/07/29 04:09:16;;;;;;;;;;;17.70;99.90;;;;;;8414797;28;19936;-70
2023/07/29 04:13:18;;;;;;;;;;;17.70;99.90;;;;;;8424892;28;19931;-70
2023/07/29 04:17:20;;;;;;;;;;;17.70;99.90;;;;;;8427173;28;19930;-70
2023/07/29 04:21:21;;;;;;;;;;;17.70;99.90;;;;;;8405437;28;19931;-71
2023/07/29 04:25:23;;;;;;;;;;;17.70;99.90;;;;;;8416357;28;19950;-71
2023/07/29 04:29:25;;;;;;;;;;;17.70;99.90;;;;;;8414274;28;19939;-71
2023/07/29 04:33:26;;;;;;;;;;;17.70;99.90;;;;;;8421314;28;19932;-71
2023/07/29 04:37:28;;;;;;;;;;;17.70;99.90;;;;;;8418050;28;19931;-70
2023/07/29 04:41:29;;;;;;;;;;;17.70;99.90;;;;;;8403821;28;19966;-70
2023/07/29 04:45:31;;;;;;;;;;;17.70;99.90;;;;;;8403735;28;20291;-70
2023/07/29 04:49:33;;;;;;;;;;;17.70;99.90;;;;;;8403358;28;20018;-70
2023/07/29 04:53:36;;;;;;;;;;;17.70;99.90;;;;;;8417627;28;19973;-70
2023/07/29 04:57:37;;;;;;;;;;;17.60;99.90;;;;;;8422181;28;20383;-70
2023/07/29 05:01:39;;;;;;;;;;;17.60;99.90;;;;;;8422263;28;19924;-71
2023/07/29 05:05:41;;;;;;;;;;;17.60;99.90;;;;;;8426044;28;19977;-70
2023/07/29 05:09:42;;;;;;;;;;;17.50;99.90;;;;;;8409850;28;20448;-71
2023/07/29 05:13:44;;;;;;;;;;;17.50;99.90;;;;;;8411376;28;19976;-71
2023/07/29 05:17:46;;;;;;;;;;;17.50;99.90;;;;;;8414441;28;19928;-70
2023/07/29 05:21:48;;;;;;;;;;;17.40;99.90;;;;;;8406275;28;19934;-70
2023/07/29 05:25:49;;;;;;;;;;;17.40;99.90;;;;;;8408704;28;19924;-71
2023/07/29 05:29:51;;;;;;;;;;;17.40;99.90;;;;;;8425109;28;19924;-70
2023/07/29 05:33:53;;;;;;;;;;;17.50;99.90;;;;;;8426022;28;19924;-70
2023/07/29 05:38:08;;;;;;;;;;;17.50;99.90;;;;;;8426352;28;20018;-70
2023/07/29 05:52:10;;;;;;;;;;;17.60;99.90;;;;;;8422235;28;19981;-70
2023/07/29 05:56:12;;;;;;;;;;;17.70;99.90;;;;;;8419828;28;19950;-70
2023/07/29 06:00:14;;;;;;;;;;;17.70;99.90;;;;;;8411850;28;19924;-71
2023/07/29 06:04:15;;;;;;;;;;;17.80;99.90;;;;;;8416943;28;20440;-71
2023/07/29 06:08:17;;;;;;;;;;;17.80;99.90;;;;;;8419493;28;19928;-70
2023/07/29 06:12:19;;;;;;;;;;;17.90;99.90;;;;;;8419621;28;19924;-70
2023/07/29 06:16:21;;;;;;;;;;;18.00;99.90;;;;;;8422706;28;19973;-70
2023/07/29 06:20:22;;;;;;;;;;;18.10;99.90;;;;;;8425739;28;19924;-70
2023/07/29 06:24:24;;;;;;;;;;;18.20;99.90;;;;;;8405861;28;19925;-70
2023/07/29 06:28:26;;;;;;;;;;;18.20;99.90;;;;;;8421869;28;20394;-70
2023/07/29 06:32:28;;;;;;;;;;;18.20;99.90;;;;;;8418703;28;19935;-70
2023/07/29 06:36:29;;;;;;;;;;;18.30;99.90;;;;;;8424788;28;19964;-71
2023/07/29 06:50:38;;;;;;;;;;;18.40;99.90;;;;;;8419932;28;19935;-70
2023/07/29 06:54:40;;;;;;;;;;;18.40;99.90;;;;;;8426676;28;19959;-70
2023/07/29 06:58:41;;;;;;;;;;;18.50;99.90;;;;;;8428220;28;19928;-71
2023/07/29 07:02:43;;;;;;;;;;;18.50;99.90;;;;;;8431245;28;19940;-70
2023/07/29 07:06:45;;;;;;;;;;;18.50;99.90;;;;;;8421545;28;19924;-70
2023/07/29 07:10:47;;;;;;;;;;;18.50;99.90;;;;;;8429189;28;19924;-70
2023/07/29 07:14:49;;;;;;;;;;;18.40;99.90;;;;;;8430513;28;19977;-70
2023/07/29 07:18:51;;;;;;;;;;;18.50;99.90;;;;;;8410222;28;19924;-70
2023/07/29 07:22:52;;;;;;;;;;;18.50;99.90;;;;;;8413644;28;20466;-70
2023/07/29 07:26:54;;;;;;;;;;;18.50;99.90;;;;;;8405364;28;19931;-71
2023/07/29 07:30:56;;;;;;;;;;;18.50;99.90;;;;;;8414987;28;20292;-71
2023/07/29 07:34:57;;;;;;;;;;;18.50;99.90;;;;;;8410356;28;19928;-71
2023/07/29 07:38:59;;;;;;;;;;;18.50;99.90;;;;;;8426414;28;19924;-70
2023/07/29 07:43:01;;;;;;;;;;;18.60;99.90;;;;;;8425007;28;19931;-70
2023/07/29 07:47:02;;;;;;;;;;;18.60;99.90;;;;;;8424114;28;19936;-70
2023/07/29 07:51:12;;;;;;;;;;;18.70;99.90;;;;;;8422580;28;19935;-70
2023/07/29 07:55:13;;;;;;;;;;;18.80;99.90;;;;;;8407670;28;20374;-70
2023/07/29 07:59:15;;;;;;;;;;;18.70;99.90;;;;;;8427541;28;19997;-70
2023/07/29 08:03:18;;;;;;;;;;;18.80;99.90;;;;;;8427490;28;19924;-70
2023/07/29 08:07:20;;;;;;;;;;;18.90;99.90;;;;;;8393476;28;19924;-71
2023/07/29 08:11:22;;;;;;;;;;;19.00;99.90;;;;;;8399193;28;20322;-70
2023/07/29 08:15:23;;;;;;;;;;;19.20;99.90;;;;;;8391443;28;19931;-70
2023/07/29 08:19:25;;;;;;;;;;;19.30;99.90;;;;;;8397220;28;19928;-70
2023/07/29 08:23:26;;;;;;;;;;;19.40;99.90;;;;;;8390757;28;19932;-70
2023/07/29 08:27:28;;;;;;;;;;;19.40;99.90;;;;;;8391265;28;19985;-70
2023/07/29 08:31:33;;;;;;;;;;;19.40;99.90;;;;;;8381670;28;19924;-70
2023/07/29 08:35:35;;;;;;;;;;;19.40;99.90;;;;;;8393890;28;20018;-71
2023/07/29 08:39:36;;;;;;;;;;;19.40;99.90;;;;;;8374937;28;19933;-71
2023/07/29 08:43:38;;;;;;;;;;;19.50;99.90;;;;;;8394477;28;20471;-71
2023/07/29 08:47:40;;;;;;;;;;;19.50;99.90;;;;;;8375003;28;19929;-71
2023/07/29 08:51:42;;;;;;;;;;;19.50;99.90;;;;;;8395150;28;19978;-70
2023/07/29 08:55:44;;;;;;;;;;;19.50;99.90;;;;;;8393529;28;19970;-70
2023/07/29 08:59:46;;;;;;;;;;;19.60;99.90;;;;;;8391284;28;19977;-71
2023/07/29 09:03:47;;;;;;;;;;;19.70;99.90;;;;;;8393136;28;19944;-70
2023/07/29 09:23:18;;;;;;;;;;;20.30;99.90;;;;;;8389675;28;20402;-71
2023/07/29 09:27:27;;;;;;;;;;;20.30;99.90;;;;;;8372730;28;19947;-69
2023/07/29 09:31:29;;;;;;;;;;;20.30;99.90;;;;;;8388406;28;19986;-70
2023/07/29 09:35:32;;;;;;;;;;;20.30;99.90;;;;;;8391342;28;20384;-70
2023/07/29 09:39:34;;;;;;;;;;;20.30;99.90;;;;;;8389249;28;19924;-70
2023/07/29 09:43:35;;;;;;;;;;;20.20;99.90;;;;;;8371318;28;19944;-70
2023/07/29 09:47:37;;;;;;;;;;;20.20;99.90;;;;;;8392145;28;19928;-71
2023/07/29 09:51:39;;;;;;;;;;;20.20;99.90;;;;;;8397265;28;20411;-70
2023/07/29 09:55:46;;;;;;;;;;;20.30;99.90;;;;;;8394030;28;19940;-70
2023/07/29 09:59:55;;;;;;;;;;;20.40;99.90;;;;;;8372009;28;19925;-69
2023/07/29 10:03:59;;;;;;;;;;;20.60;99.90;;;;;;8389872;28;19928;-70
2023/07/29 10:08:02;;;;;;;;;;;20.70;99.90;;;;;;8390593;28;19931;-71
2023/07/29 10:12:05;;;;;;;;;;;20.70;99.90;;;;;;8394931;28;20296;-70
2023/07/29 10:16:07;;;;;;;;;;;20.80;99.90;;;;;;8372785;28;19978;-70
2023/07/29 10:20:09;;;;;;;;;;;20.70;99.90;;;;;;8391540;28;19932;-70
2023/07/29 10:24:15;;;;;;;;;;;20.70;99.90;;;;;;8377850;28;19935;-71
2023/07/29 10:28:18;;;;;;;;;;;20.70;99.90;;;;;;8387762;28;19924;-69
2023/07/29 10:32:21;;;;;;;;;;;20.60;99.90;;;;;;8389339;28;19924;-70
2023/07/29 10:36:23;;;;;;;;;;;20.60;99.90;;;;;;8375882;28;19924;-71
2023/07/29 10:40:25;;;;;;;;;;;20.60;99.90;;;;;;8390870;28;20284;-70
2023/07/29 10:44:39;;;;;;;;;;;20.50;99.90;;;;;;8374082;28;19929;-70
2023/07/29 10:48:41;;;;;;;;;;;20.40;99.90;;;;;;8371223;28;19924;-71
2023/07/29 10:52:43;;;;;;;;;;;20.30;99.90;;;;;;8390922;28;19924;-71
2023/07/29 10:56:48;;;;;;;;;;;20.10;99.90;;;;;;8391229;28;20339;-71
2023/07/29 11:00:49;;;;;;;;;;;20.10;99.90;;;;;;8398287;28;20630;-71
2023/07/29 11:04:51;;;;;;;;;;;20.00;99.90;;;;;;8391450;28;19928;-71
2023/07/29 11:08:53;;;;;;;;;;;20.00;99.90;;;;;;8387963;28;19960;-70
2023/07/29 11:12:56;;;;;;;;;;;19.90;99.90;;;;;;8377677;28;19925;-71
2023/07/29 11:16:58;;;;;;;;;;;19.90;99.90;;;;;;8401888;28;19928;-71
2023/07/29 11:21:00;;;;;;;;;;;19.90;99.90;;;;;;8381240;28;19928;-71
2023/07/29 11:25:02;;;;;;;;;;;19.80;99.90;;;;;;8393197;28;19932;-71
2023/07/29 11:29:04;;;;;;;;;;;19.80;99.90;;;;;;8397311;28;19928;-71
2023/07/29 11:33:06;;;;;;;;;;;19.70;99.90;;;;;;8394531;28;20361;-71
2023/07/29 11:37:09;;;;;;;;;;;19.60;99.90;;;;;;8396945;28;19925;-71
2023/07/29 11:41:11;;;;;;;;;;;19.60;99.90;;;;;;8396576;28;19978;-71
2023/07/29 11:45:13;;;;;;;;;;;19.50;99.90;;;;;;8395249;28;20368;-71
2023/07/29 11:49:18;;;;;;;;;;;19.50;99.90;;;;;;8391792;28;19932;-71
2023/07/29 11:53:19;;;;;;;;;;;19.50;99.90;;;;;;8397002;28;19924;-71
2023/07/29 11:57:21;;;;;;;;;;;19.50;99.90;;;;;;8377688;28;19929;-71
2023/07/29 12:01:23;;;;;;;;;;;19.50;99.90;;;;;;8375556;28;19931;-71
2023/07/29 12:05:25;;;;;;;;;;;19.50;99.90;;;;;;8398631;28;19925;-71
2023/07/29 12:09:27;;;;;;;;;;;19.60;99.90;;;;;;8394919;28;19928;-71
2023/07/29 12:13:29;;;;;;;;;;;19.80;99.90;;;;;;8390552;28;19970;-71
2023/07/29 12:17:30;;;;;;;;;;;20.00;99.90;;;;;;8389695;28;19932;-71
2023/07/29 12:21:32;;;;;;;;;;;20.10;99.90;;;;;;8389989;28;19980;-71
2023/07/29 12:25:34;;;;;;;;;;;20.20;99.90;;;;;;8385732;28;19978;-71
2023/07/29 12:29:39;;;;;;;;;;;20.30;99.90;;;;;;8389652;28;20333;-71
2023/07/29 12:33:42;;;;;;;;;;;20.30;99.90;;;;;;8393590;28;19932;-71
2023/07/29 12:37:43;;;;;;;;;;;20.30;99.90;;;;;;8395616;28;20274;-70
2023/07/29 12:41:45;;;;;;;;;;;20.30;99.90;;;;;;8398650;28;19966;-71
2023/07/29 12:45:49;;;;;;;;;;;20.30;99.90;;;;;;8395172;28;19928;-71
2023/07/29 12:49:50;;;;;;;;;;;20.30;99.90;;;;;;8393850;28;20015;-71
2023/07/29 12:53:53;;;;;;;;;;;20.40;99.90;;;;;;8386176;28;19935;-71
2023/07/29 12:57:55;;;;;;;;;;;20.60;99.90;;;;;;8392684;28;20303;-70
2023/07/29 13:01:57;;;;;;;;;;;20.80;99.90;;;;;;8379827;28;19940;-71
2023/07/29 13:05:58;;;;;;;;;;;21.00;99.90;;;;;;8385599;28;20050;-71
2023/07/29 13:10:00;;;;;;;;;;;21.00;99.90;;;;;;8393650;28;20372;-70
2023/07/29 13:14:02;;;;;;;;;;;21.10;99.90;;;;;;8387428;28;19925;-70
2023/07/29 13:18:03;;;;;;;;;;;21.10;99.90;;;;;;8392244;28;19925;-70
2023/07/29 13:22:05;;;;;;;;;;;21.10;99.90;;;;;;8398999;28;19932;-70
2023/07/29 13:26:07;;;;;;;;;;;21.00;99.90;;;;;;8402092;28;20554;-71
2023/07/29 13:30:09;;;;;;;;;;;21.00;99.90;;;;;;8393520;28;19931;-70
2023/07/29 13:34:11;;;;;;;;;;;21.20;99.90;;;;;;8376031;28;19978;-70
2023/07/29 13:38:12;;;;;;;;;;;21.40;99.90;;;;;;8395186;28;19928;-70
2023/07/29 13:42:14;;;;;;;;;;;21.50;99.90;;;;;;8400048;28;20272;-70
2023/07/29 13:46:16;;;;;;;;;;;21.60;99.90;;;;;;8372863;28;19928;-70
2023/07/29 13:50:18;;;;;;;;;;;21.70;99.90;;;;;;8394449;28;20273;-70
2023/07/29 13:54:19;;;;;;;;;;;21.70;99.90;;;;;;8398006;28;19933;-70
2023/07/29 13:58:21;;;;;;;;;;;21.70;99.90;;;;;;8391680;28;19944;-71
2023/07/29 14:02:23;;;;;;;;;;;21.60;99.90;;;;;;8390926;28;19929;-71
2023/07/29 14:06:24;;;;;;;;;;;21.50;99.90;;;;;;8395511;28;19924;-70
2023/07/29 14:10:44;;;;;;;;;;;21.50;99.90;;;;;;8381295;28;19970;-70
2023/07/29 14:14:45;;;;;;;;;;;21.60;99.90;;;;;;8396395;28;19925;-71
2023/07/29 14:18:47;;;;;;;;;;;21.70;99.90;;;;;;8376028;28;19924;-71
2023/07/29 14:22:49;;;;;;;;;;;21.80;99.90;;;;;;8391938;28;19935;-70
2023/07/29 14:26:50;;;;;;;;;;;22.00;99.90;;;;;;8390738;28;19979;-70
2023/07/29 14:41:00;;;;;;;;;;;22.20;99.90;;;;;;8390808;28;19919;-71
2023/07/29 14:45:01;;;;;;;;;;;22.40;99.90;;;;;;8389662;28;19925;-70
2023/07/29 14:49:03;;;;;;;;;;;22.30;99.90;;;;;;8398052;28;19928;-70
2023/07/29 14:53:05;;;;;;;;;;;22.10;99.90;;;;;;8378545;28;19947;-70
2023/07/29 14:57:07;;;;;;;;;;;22.10;99.90;;;;;;8396416;28;20265;-70
2023/07/29 15:01:08;;;;;;;;;;;21.90;99.90;;;;;;8398607;28;20348;-70
2023/07/29 15:05:10;;;;;;;;;;;21.90;99.90;;;;;;8399011;28;20288;-71
2023/07/29 15:09:12;;;;;;;;;;;22.00;99.90;;;;;;8380214;28;19974;-70
2023/07/29 15:13:14;;;;;;;;;;;22.10;99.90;;;;;;8397348;28;19933;-70
2023/07/29 15:17:15;;;;;;;;;;;22.30;99.90;;;;;;8401326;28;19932;-70
2023/07/29 15:21:17;;;;;;;;;;;22.40;99.90;;;;;;8400518;28;20277;-71
2023/07/29 15:25:19;;;;;;;;;;;22.30;99.90;;;;;;8392432;28;19924;-71
2023/07/29 15:29:20;;;;;;;;;;;22.20;99.90;;;;;;8395901;28;20334;-71
2023/07/29 15:33:22;;;;;;;;;;;22.10;99.90;;;;;;8395793;28;19924;-71
2023/07/29 15:37:27;;;;;;;;;;;22.00;99.90;;;;;;8397950;28;20406;-70
2023/07/29 15:41:31;;;;;;;;;;;21.60;99.90;;;;;;8400342;28;19925;-71
2023/07/29 15:45:33;;;;;;;;;;;21.00;99.90;;;;;;8381609;28;19925;-71
2023/07/29 15:49:35;;;;;;;;;;;20.60;99.90;;;;;;8395608;28;20370;-71
2023/07/29 15:53:36;;;;;;;;;;;20.50;99.90;;;;;;8399266;28;19924;-71
2023/07/29 15:57:38;;;;;;;;;;;20.40;99.90;;;;;;8403728;28;19928;-70
2023/07/29 16:01:39;;;;;;;;;;;20.70;99.90;;;;;;8399014;28;19928;-71
2023/07/29 16:05:41;;;;;;;;;;;20.90;99.90;;;;;;8385749;28;20999;-71
2023/07/29 16:09:43;;;;;;;;;;;21.00;99.90;;;;;;8397443;28;20410;-71
2023/07/29 16:13:45;;;;;;;;;;;21.10;99.90;;;;;;8397701;28;20414;-71
2023/07/29 16:17:49;;;;;;;;;;;21.50;99.90;;;;;;8392550;28;20284;-71
2023/07/29 16:21:51;;;;;;;;;;;22.10;99.90;;;;;;8400079;28;19928;-71
2023/07/29 16:25:53;;;;;;;;;;;22.60;99.90;;;;;;8398023;28;19951;-71
2023/07/29 16:29:55;;;;;;;;;;;23.10;99.90;;;;;;8397152;28;20349;-71
2023/07/29 16:33:56;;;;;;;;;;;23.20;99.90;;;;;;8398465;28;19986;-71
2023/07/29 16:37:59;;;;;;;;;;;23.40;99.90;;;;;;8398858;28;19928;-71
2023/07/29 16:42:01;;;;;;;;;;;23.60;99.90;;;;;;8404163;28;19994;-71
2023/07/29 16:46:06;;;;;;;;;;;23.80;99.90;;;;;;8401860;28;19924;-71
2023/07/29 16:50:08;;;;;;;;;;;23.70;99.90;;;;;;8398996;28;19924;-71
2023/07/29 16:54:11;;;;;;;;;;;23.50;99.90;;;;;;8396225;28;19952;-70
2023/07/29 16:58:13;;;;;;;;;;;23.30;99.90;;;;;;8399428;28;19931;-71
2023/07/29 17:02:14;;;;;;;;;;;23.10;99.90;;;;;;8401643;28;19928;-71
2023/07/29 17:06:16;;;;;;;;;;;22.80;99.90;;;;;;8396229;28;20019;-70
2023/07/29 17:10:18;;;;;;;;;;;22.40;99.90;;;;;;8403548;28;20388;-70
2023/07/29 17:14:19;;;;;;;;;;;22.20;99.90;;;;;;8390755;28;20420;-71
2023/07/29 17:18:21;;;;;;;;;;;21.90;99.90;;;;;;8394928;28;20360;-71
2023/07/29 17:22:23;;;;;;;;;;;21.80;99.90;;;;;;8393211;28;19931;-70
2023/07/29 17:26:24;;;;;;;;;;;21.70;99.90;;;;;;8398174;28;20314;-70
2023/07/29 17:30:27;;;;;;;;;;;21.70;99.90;;;;;;8398588;28;20425;-70
2023/07/29 17:34:29;;;;;;;;;;;21.80;99.90;;;;;;8396889;28;20428;-71
2023/07/29 17:38:31;;;;;;;;;;;21.80;99.90;;;;;;8393409;28;20395;-71
2023/07/29 17:42:33;;;;;;;;;;;21.80;99.90;;;;;;8393212;28;19970;-71
2023/07/29 17:46:35;;;;;;;;;;;21.80;99.90;;;;;;8389932;28;19978;-70
2023/07/29 17:50:37;;;;;;;;;;;21.60;99.90;;;;;;8395604;28;20356;-70
2023/07/29 17:54:39;;;;;;;;;;;21.50;99.90;;;;;;8394963;28;19925;-71
2023/07/29 17:58:40;;;;;;;;;;;21.40;99.90;;;;;;8392800;28;19928;-71
2023/07/29 18:02:42;;;;;;;;;;;21.40;99.90;;;;;;8397283;28;19928;-70
2023/07/29 18:06:44;;;;;;;;;;;21.50;99.90;;;;;;8390395;28;19935;-70
2023/07/29 18:10:45;;;;;;;;;;;21.40;99.90;;;;;;8377752;28;19924;-70
2023/07/29 18:14:47;;;;;;;;;;;21.40;99.90;;;;;;8387971;28;19924;-71
2023/07/29 18:18:49;;;;;;;;;;;21.30;99.90;;;;;;8395061;28;19950;-70
2023/07/29 18:22:51;;;;;;;;;;;21.30;99.90;;;;;;8399929;28;19979;-71
2023/07/29 18:26:53;;;;;;;;;;;21.20;99.90;;;;;;8400615;28;20372;-71
2023/07/29 18:30:54;;;;;;;;;;;21.10;99.90;;;;;;8381558;28;19924;-71
2023/07/29 18:34:56;;;;;;;;;;;21.00;99.90;;;;;;8407826;28;19931;-71
2023/07/29 18:38:58;;;;;;;;;;;20.90;99.90;;;;;;8402228;28;20429;-71
2023/07/29 18:42:59;;;;;;;;;;;20.80;99.90;;;;;;8400503;28;20337;-71
2023/07/29 18:47:01;;;;;;;;;;;20.70;99.90;;;;;;8388403;28;20067;-71
2023/07/29 18:51:04;;;;;;;;;;;20.70;99.90;;;;;;8401888;28;19931;-71
2023/07/29 18:55:06;;;;;;;;;;;20.60;99.90;;;;;;8391144;28;19928;-70
2023/07/29 18:59:09;;;;;;;;;;;20.50;99.90;;;;;;8403589;28;19924;-71
2023/07/29 19:03:11;;;;;;;;;;;20.40;99.90;;;;;;8398942;28;19935;-70
2023/07/29 19:07:13;;;;;;;;;;;20.40;99.90;;;;;;8415567;28;19929;-71
2023/07/29 19:11:15;;;;;;;;;;;20.30;99.90;;;;;;8386333;28;19924;-71
2023/07/29 19:15:17;;;;;;;;;;;20.20;99.90;;;;;;8401970;28;20473;-71
2023/07/29 19:19:18;;;;;;;;;;;20.10;99.90;;;;;;8400565;28;19928;-71
2023/07/29 19:23:20;;;;;;;;;;;20.10;99.90;;;;;;8395942;28;19928;-71
2023/07/29 19:27:22;;;;;;;;;;;20.00;99.90;;;;;;8404402;28;20394;-71
2023/07/29 19:31:24;;;;;;;;;;;19.90;99.90;;;;;;8394222;28;19924;-71
2023/07/29 19:35:26;;;;;;;;;;;19.90;99.90;;;;;;8403203;28;19986;-71
2023/07/29 19:39:28;;;;;;;;;;;19.70;99.90;;;;;;8400848;28;19928;-71
2023/07/29 19:43:32;;;;;;;;;;;19.70;99.90;;;;;;8411520;28;20272;-71
2023/07/29 19:47:34;;;;;;;;;;;19.60;99.90;;;;;;8401494;28;20744;-71
2023/07/29 19:51:36;;;;;;;;;;;19.50;99.90;;;;;;8400288;28;19924;-71
2023/07/29 19:55:37;;;;;;;;;;;19.50;99.90;;;;;;8387599;28;20293;-70
2023/07/29 19:59:39;;;;;;;;;;;19.50;99.90;;;;;;8399827;28;19929;-70
2023/07/29 20:03:49;;;;;;;;;;;19.40;99.90;;;;;;8401072;28;20041;-71
2023/07/29 20:07:51;;;;;;;;;;;19.40;99.90;;;;;;8397977;28;19928;-71
2023/07/29 20:11:52;;;;;;;;;;;19.30;99.90;;;;;;8402583;28;19936;-71
2023/07/29 20:15:54;;;;;;;;;;;19.40;99.90;;;;;;8399638;28;19924;-71
2023/07/29 20:19:56;;;;;;;;;;;19.40;99.90;;;;;;8392632;28;19978;-71
2023/07/29 20:23:57;;;;;;;;;;;19.30;99.90;;;;;;8398947;28;19924;-71
2023/07/29 20:27:59;;;;;;;;;;;19.20;99.90;;;;;;8379987;28;19924;-71
2023/07/29 20:32:01;;;;;;;;;;;19.10;99.90;;;;;;8399065;28;19924;-71
2023/07/29 20:36:02;;;;;;;;;;;19.00;99.90;;;;;;8397920;28;19928;-71
2023/07/29 20:40:05;;;;;;;;;;;19.00;99.90;;;;;;8401096;28;19925;-71
2023/07/29 20:44:10;;;;;;;;;;;18.90;99.90;;;;;;8393642;28;19978;-71
2023/07/29 20:48:12;;;;;;;;;;;18.90;99.90;;;;;;8395130;28;19998;-71
2023/07/29 20:52:14;;;;;;;;;;;18.80;99.90;;;;;;8397428;28;19931;-71
2023/07/29 20:56:15;;;;;;;;;;;18.80;99.90;;;;;;8391624;28;19935;-71
2023/07/29 21:00:17;;;;;;;;;;;18.70;99.90;;;;;;8396648;28;19978;-71
2023/07/29 21:04:19;;;;;;;;;;;18.70;99.90;;;;;;8405176;28;19924;-71
2023/07/29 21:08:20;;;;;;;;;;;18.80;99.90;;;;;;8427801;28;19924;-71
2023/07/29 21:12:23;;;;;;;;;;;18.80;99.90;;;;;;8409092;28;20403;-71
2023/07/29 21:16:25;;;;;;;;;;;18.80;99.90;;;;;;8421320;28;19924;-71
2023/07/29 21:20:26;;;;;;;;;;;18.70;99.90;;;;;;8414194;28;19960;-71
2023/07/29 21:24:28;;;;;;;;;;;18.60;99.90;;;;;;8409181;28;19928;-71
2023/07/29 21:28:30;;;;;;;;;;;18.60;99.90;;;;;;8420806;28;19924;-71
2023/07/29 21:32:31;;;;;;;;;;;18.60;99.90;;;;;;8397290;28;19932;-71
2023/07/29 21:46:40;;;;;;;;;;;18.50;99.90;;;;;;8417325;28;20413;-71
2023/07/29 21:50:42;;;;;;;;;;;18.50;99.90;;;;;;8406464;28;19982;-71
2023/07/29 21:54:44;;;;;;;;;;;18.50;99.90;;;;;;8424096;28;19932;-71
2023/07/29 21:58:45;;;;;;;;;;;18.50;99.90;;;;;;8421899;28;20376;-71
2023/07/29 22:02:47;;;;;;;;;;;18.40;99.90;;;;;;8404116;28;20278;-71
2023/07/29 22:06:51;;;;;;;;;;;18.40;99.90;;;;;;8421521;28;21286;-71
2023/07/29 22:10:53;;;;;;;;;;;18.40;99.90;;;;;;8425834;28;19928;-71
2023/07/29 22:14:54;;;;;;;;;;;18.40;99.90;;;;;;8414018;28;19924;-71
2023/07/29 22:18:56;;;;;;;;;;;18.30;99.90;;;;;;8420946;28;19932;-70
2023/07/29 22:22:58;;;;;;;;;;;18.30;99.90;;;;;;8405865;28;19924;-70
2023/07/29 22:37:06;;;;;;;;;;;18.20;99.90;;;;;;8412587;28;19966;-71
2023/07/29 22:41:10;;;;;;;;;;;18.20;99.90;;;;;;8419417;28;19928;-71
2023/07/29 22:45:11;;;;;;;;;;;18.20;99.90;;;;;;8422458;28;19928;-71
2023/07/29 22:49:13;;;;;;;;;;;18.20;99.90;;;;;;8413815;28;19924;-71
2023/07/29 22:53:15;;;;;;;;;;;18.20;99.90;;;;;;8418950;28;19924;-71
2023/07/29 22:57:17;;;;;;;;;;;18.10;99.90;;;;;;8401630;28;19961;-71
2023/07/29 23:01:18;;;;;;;;;;;18.00;99.90;;;;;;8395657;28;19932;-71
2023/07/29 23:05:20;;;;;;;;;;;17.90;99.90;;;;;;8424254;28;20282;-71
2023/07/29 23:09:22;;;;;;;;;;;17.80;99.90;;;;;;8426771;28;19969;-71
2023/07/29 23:13:23;;;;;;;;;;;17.70;99.90;;;;;;8406001;28;19928;-71
2023/07/29 23:17:25;;;;;;;;;;;17.70;99.90;;;;;;8424083;28;19925;-71
2023/07/29 23:21:27;;;;;;;;;;;17.70;99.90;;;;;;8428405;28;19924;-71
2023/07/29 23:25:29;;;;;;;;;;;17.60;99.90;;;;;;8422434;28;19932;-70
2023/07/29 23:29:31;;;;;;;;;;;17.60;99.90;;;;;;8424826;28;19990;-71
2023/07/29 23:33:32;;;;;;;;;;;17.50;99.90;;;;;;8419684;28;19931;-71
2023/07/29 23:37:34;;;;;;;;;;;17.50;99.90;;;;;;8418042;28;19999;-71
2023/07/29 23:41:36;;;;;;;;;;;17.50;99.90;;;;;;8412993;28;19924;-71
2023/07/29 23:45:38;;;;;;;;;;;17.40;99.90;;;;;;8412453;28;19982;-71
2023/07/29 23:49:39;;;;;;;;;;;17.40;99.90;;;;;;8416549;28;20329;-71
2023/07/29 23:53:41;;;;;;;;;;;17.30;99.90;;;;;;8422207;28;20307;-71
2023/07/29 23:57:43;;;;;;;;;;;17.30;99.90;;;;;;8424204;28;19928;-71
